Terminal Aerodrome Forecast
Issued by NWS

Home | Current Version | Previous Version | Text Only | Print | Product List | Glossary On
Versions: 1 2 3 4 5 6 7 8 9 10 11 12 13
000
FTUS44 KOUN 171728
TAFGAG
TAF
KGAG 171728Z 1718/1818 15010KT P6SM FEW150 SCT250 PROB30 1805/1810
      4SM TSRA BKN050CB OVC150=

USA.gov is the U.S. government's official web portal to all federal, state and local government web resources and services.